createdAt,value
2023-04-06T00:01:35.507Z,100003.88
2023-04-06T00:04:02.111Z,100004.69
2023-04-06T00:06:28.793Z,100007.22
2023-04-06T00:08:55.609Z,99998.59
2023-04-06T00:11:22.568Z,100010.56
2023-04-06T00:13:49.204Z,100005.34
2023-04-06T00:16:16.164Z,100010.50
2023-04-06T00:18:42.811Z,100008.72
2023-04-06T00:21:09.422Z,100003.50
2023-04-06T00:23:36.073Z,100008.63
2023-04-06T00:26:02.646Z,100012.06
2023-04-06T00:28:30.991Z,100008.59
2023-04-06T00:30:57.643Z,100006.84
2023-04-06T00:33:24.647Z,100015.38
2023-04-06T00:35:51.662Z,100008.53
2023-04-06T00:38:18.310Z,100006.78
2023-04-06T00:40:47.771Z,100010.16
2023-04-06T00:43:14.540Z,100008.38
2023-04-06T00:45:42.282Z,100008.34
2023-04-06T00:48:09.653Z,100009.94
2023-04-06T00:50:36.472Z,100009.94
2023-04-06T00:53:03.069Z,100005.56
2023-04-06T00:55:29.939Z,99997.84
2023-04-06T00:57:59.957Z,100003.91
2023-04-06T01:00:26.765Z,100001.16
2023-04-06T01:02:56.523Z,100003.75
2023-04-06T01:05:23.372Z,99997.69
2023-04-06T01:07:50.018Z,99997.63
2023-04-06T01:10:26.596Z,100001.06
2023-04-06T01:12:53.140Z,99999.31
2023-04-06T01:15:20.885Z,100000.16
2023-04-06T01:17:47.502Z,99991.53
2023-04-06T01:20:14.246Z,99997.59
2023-04-06T01:22:41.121Z,99989.78
2023-04-06T01:25:08.159Z,99990.63
2023-04-06T01:27:34.710Z,100000.91
2023-04-06T01:30:01.577Z,99993.13
2023-04-06T01:32:28.376Z,100000.78
2023-04-06T01:34:55.920Z,99993.03
2023-04-06T01:37:22.515Z,99989.59
2023-04-06T01:39:49.108Z,99991.25
2023-04-06T01:42:15.695Z,99994.66
2023-04-06T01:44:42.346Z,99992.03
2023-04-06T01:47:08.919Z,99988.63
2023-04-06T01:49:35.546Z,99985.16
2023-04-06T01:52:02.165Z,99984.25
2023-04-06T01:54:28.705Z,99990.22
2023-04-06T01:56:55.325Z,99986.78
2023-04-06T01:59:21.983Z,99981.59
2023-04-06T02:01:48.680Z,99988.41
2023-04-06T02:04:15.700Z,99991.81
2023-04-06T02:06:42.483Z,99995.22
2023-04-06T02:09:09.303Z,100003.75
2023-04-06T02:11:36.667Z,100003.66
2023-04-06T02:14:03.301Z,100002.78
2023-04-06T02:16:49.944Z,99996.72
2023-04-06T02:19:16.614Z,100001.00
2023-04-06T02:21:43.348Z,99999.22
2023-04-06T02:24:09.934Z,100004.34
2023-04-06T02:26:36.522Z,100003.44
2023-04-06T02:29:03.310Z,100005.22
2023-04-06T02:31:29.912Z,100011.19
2023-04-06T02:33:56.507Z,100017.19
2023-04-06T02:36:23.073Z,100009.47
2023-04-06T02:38:49.663Z,100007.69
2023-04-06T02:41:16.314Z,100015.41
2023-04-06T02:43:42.874Z,100023.16
2023-04-06T02:46:09.515Z,100019.72
2023-04-06T02:48:38.181Z,100013.69
2023-04-06T02:51:04.892Z,100020.50
2023-04-06T02:53:31.560Z,100029.91
2023-04-06T02:55:58.143Z,100020.47
2023-04-06T02:58:24.843Z,100028.19
2023-04-06T03:00:51.394Z,100041.00
2023-04-06T03:03:18.083Z,100035.88
2023-04-06T03:05:44.746Z,100034.16
2023-04-06T03:08:11.506Z,100041.00
2023-04-06T03:10:38.084Z,100039.28
2023-04-06T03:13:04.705Z,100042.66
2023-04-06T03:15:31.310Z,100039.19
2023-04-06T03:18:00.458Z,100038.31
2023-04-06T03:20:27.254Z,100033.97
2023-04-06T03:22:53.774Z,100038.25
2023-04-06T03:25:20.500Z,100044.25
2023-04-06T03:27:47.103Z,100051.97
2023-04-06T03:30:13.845Z,100054.53
2023-04-06T03:32:40.640Z,100048.56
2023-04-06T03:35:07.410Z,100059.66
2023-04-06T03:37:34.013Z,100062.28
2023-04-06T03:40:00.572Z,100061.50
2023-04-06T03:42:27.764Z,100058.94
2023-04-06T03:44:54.407Z,100063.22
2023-04-06T03:47:21.515Z,100064.97
2023-04-06T03:49:48.139Z,100064.97
2023-04-06T03:52:14.738Z,100059.84
2023-04-06T03:54:41.411Z,100063.31
2023-04-06T03:57:08.038Z,100067.59
2023-04-06T03:59:34.680Z,100066.75
2023-04-06T04:02:01.445Z,100070.19
2023-04-06T04:04:28.022Z,100065.91
2023-04-06T04:06:54.661Z,100071.09
2023-04-06T04:09:21.306Z,100072.91
2023-04-06T04:11:47.932Z,100072.09
2023-04-06T04:14:14.574Z,100078.09
2023-04-06T04:16:42.450Z,100080.75
2023-04-06T04:19:09.476Z,100079.94
2023-04-06T04:21:43.079Z,100084.25
2023-04-06T04:24:09.727Z,100084.34
2023-04-06T04:26:36.413Z,100081.88
2023-04-06T04:29:03.083Z,100087.94
2023-04-06T04:31:29.796Z,100083.66
2023-04-06T04:33:56.439Z,100090.63
2023-04-06T04:36:24.214Z,100090.69
2023-04-06T04:38:50.886Z,100079.63
2023-04-06T04:41:17.433Z,100083.97
2023-04-06T04:43:44.145Z,100089.16
2023-04-06T04:46:10.997Z,100078.97
2023-04-06T04:48:37.618Z,100079.88
2023-04-06T04:51:05.457Z,100079.88
2023-04-06T04:53:32.281Z,100073.91
2023-04-06T04:55:58.858Z,100081.72
2023-04-06T04:58:25.532Z,100083.53
2023-04-06T05:00:52.166Z,100088.78
2023-04-06T05:03:26.010Z,100082.06
2023-04-06T05:05:52.840Z,100082.13
2023-04-06T05:08:19.598Z,100086.47
2023-04-06T05:10:47.659Z,100088.22
2023-04-06T05:13:14.275Z,100088.28
2023-04-06T05:15:41.555Z,100086.63
2023-04-06T05:18:08.758Z,100089.22
2023-04-06T05:20:35.646Z,100093.56
2023-04-06T05:23:02.528Z,100093.69
2023-04-06T05:25:29.259Z,100091.16
2023-04-06T05:27:55.921Z,100096.44
2023-04-06T05:30:22.756Z,100093.09
2023-04-06T05:32:49.361Z,100090.63
2023-04-06T05:35:16.195Z,100091.56
2023-04-06T05:37:42.823Z,100098.50
2023-04-06T05:40:09.619Z,100095.16
2023-04-06T05:42:43.604Z,100093.53
2023-04-06T05:45:11.947Z,100086.78
2023-04-06T05:47:38.571Z,100092.94
2023-04-06T05:50:05.563Z,100091.38
2023-04-06T05:52:32.107Z,100092.25
2023-04-06T05:54:58.801Z,100087.28
2023-04-06T05:57:25.473Z,100092.53
2023-04-06T05:59:52.080Z,100098.59
2023-04-06T06:02:18.685Z,100099.63
2023-04-06T06:04:45.499Z,100100.59
2023-04-06T06:07:12.061Z,100105.78
2023-04-06T06:09:38.685Z,100103.28
2023-04-06T06:12:05.368Z,100105.91
2023-04-06T06:14:32.165Z,100096.56
2023-04-06T06:16:58.753Z,100091.50
2023-04-06T06:19:25.515Z,100089.06
2023-04-06T06:21:52.137Z,100093.47
2023-04-06T06:24:18.772Z,100086.69
2023-04-06T06:26:45.390Z,100087.72
2023-04-06T06:29:12.002Z,100082.72
2023-04-06T06:31:38.698Z,100081.13
2023-04-06T06:34:05.428Z,100087.25
2023-04-06T06:36:32.848Z,100077.84
2023-04-06T06:38:59.630Z,100078.69
2023-04-06T06:41:27.150Z,100086.47
2023-04-06T06:43:53.917Z,100078.84
2023-04-06T06:46:21.669Z,100083.16
2023-04-06T06:48:48.327Z,100072.81
2023-04-06T06:51:14.934Z,100075.53
2023-04-06T06:53:41.521Z,100074.72
2023-04-06T06:56:08.099Z,100076.47
2023-04-06T06:58:34.731Z,100079.16
2023-04-06T07:01:01.460Z,100077.53
2023-04-06T07:03:28.116Z,100080.19
2023-04-06T07:05:55.152Z,100082.00
2023-04-06T07:08:22.176Z,100074.41
2023-04-06T07:10:49.048Z,100085.59
2023-04-06T07:13:22.819Z,100072.88
2023-04-06T07:15:52.692Z,100078.88
2023-04-06T07:18:19.621Z,100078.97
2023-04-06T07:20:46.440Z,100079.09
2023-04-06T07:23:13.062Z,100079.13
2023-04-06T07:25:39.802Z,100078.38
2023-04-06T07:28:06.437Z,100074.16
2023-04-06T07:30:33.948Z,100074.31
2023-04-06T07:33:02.556Z,100070.97
2023-04-06T07:35:31.190Z,100075.38
2023-04-06T07:37:58.377Z,100069.50
2023-04-06T07:40:25.147Z,100076.47
2023-04-06T07:42:51.780Z,100071.38
2023-04-06T07:45:18.567Z,100077.53
2023-04-06T07:47:45.455Z,100072.44
2023-04-06T07:50:12.126Z,100078.53
2023-04-06T07:52:39.707Z,100076.88
2023-04-06T07:55:06.458Z,100081.25
2023-04-06T07:57:33.048Z,100086.47
2023-04-06T07:59:59.643Z,100075.28
2023-04-06T08:02:26.478Z,100070.16
2023-04-06T08:04:53.161Z,100055.47
2023-04-06T08:07:19.908Z,100072.78
2023-04-06T08:09:46.482Z,100052.03
2023-04-06T08:12:13.068Z,100062.44
2023-04-06T08:14:39.701Z,100070.22
2023-04-06T08:17:06.689Z,100066.78
2023-04-06T08:19:33.395Z,100077.19
2023-04-06T08:22:00.207Z,100059.03
2023-04-06T08:24:26.850Z,100079.78
2023-04-06T08:26:54.081Z,100065.97
2023-04-06T08:29:20.759Z,100076.38
2023-04-06T08:31:47.465Z,100072.03
2023-04-06T08:34:14.564Z,100076.38
2023-04-06T08:36:42.106Z,100068.59
2023-04-06T08:39:08.780Z,100063.38
2023-04-06T08:41:35.915Z,100055.56
2023-04-06T08:44:03.722Z,100058.16
2023-04-06T08:46:31.639Z,100051.22
2023-04-06T08:48:59.737Z,100052.09
2023-04-06T08:51:27.616Z,100048.59
2023-04-06T08:53:57.556Z,100046.88
2023-04-06T08:56:24.965Z,100007.94
2023-04-06T08:58:53.406Z,100053.78
2023-04-06T09:01:26.830Z,100033.81
2023-04-06T09:03:57.164Z,100015.59
2023-04-06T09:06:24.037Z,100053.66
2023-04-06T09:08:50.668Z,100044.97
2023-04-06T09:11:17.385Z,99986.81
2023-04-06T09:13:46.807Z,100046.53
2023-04-06T09:16:13.834Z,100053.44
2023-04-06T09:18:41.158Z,99922.53
2023-04-06T09:21:08.290Z,99885.16
2023-04-06T09:23:34.998Z,100065.44
2023-04-06T09:26:12.109Z,100038.47
2023-04-06T09:28:58.321Z,99865.81
2023-04-06T09:31:29.592Z,100000.09
2023-04-06T09:33:57.374Z,100032.06
2023-04-06T09:36:33.149Z,100013.00
2023-04-06T09:39:00.761Z,100023.50
2023-04-06T09:41:34.785Z,99994.88
2023-04-06T09:44:05.399Z,100031.16
2023-04-06T09:46:42.941Z,100031.88
2023-04-06T09:49:18.602Z,100042.16
2023-04-06T09:51:50.928Z,100020.34
2023-04-06T09:54:19.788Z,99991.56
2023-04-06T09:57:04.980Z,99830.03
2023-04-06T09:59:31.790Z,99982.72
2023-04-06T10:01:59.851Z,99977.38
2023-04-06T10:04:38.410Z,99964.19
2023-04-06T10:07:07.374Z,99994.50
2023-04-06T10:09:37.112Z,99987.53
2023-04-06T10:12:04.704Z,99987.41
2023-04-06T10:14:32.319Z,99941.22
2023-04-06T10:16:59.172Z,99923.75
2023-04-06T10:19:29.082Z,99951.50
2023-04-06T10:21:57.245Z,99945.25
2023-04-06T10:24:23.911Z,99927.41
2023-04-06T10:27:02.620Z,99897.28
2023-04-06T10:29:29.607Z,99844.53
2023-04-06T10:31:56.552Z,99776.31
2023-04-06T10:34:23.321Z,99711.28
2023-04-06T10:36:49.927Z,99704.00
2023-04-06T10:39:25.328Z,99633.41
2023-04-06T10:41:52.033Z,99547.72
2023-04-06T10:44:22.774Z,99514.75
2023-04-06T10:47:02.778Z,99536.50
2023-04-06T10:49:29.374Z,99501.97
2023-04-06T10:51:57.012Z,99411.09
2023-04-06T10:54:25.356Z,99368.72
2023-04-06T10:56:51.979Z,99333.69
2023-04-06T10:59:22.692Z,99261.81
2023-04-06T11:01:49.986Z,99173.09
2023-04-06T11:04:18.739Z,99202.78
2023-04-06T11:06:49.788Z,99073.44
2023-04-06T11:09:29.432Z,99135.66
2023-04-06T11:11:57.147Z,99043.25
2023-04-06T11:14:24.179Z,98971.88
2023-04-06T11:16:51.197Z,98893.38
2023-04-06T11:19:18.313Z,98892.16
2023-04-06T11:21:48.332Z,98989.50
2023-04-06T11:24:22.291Z,98907.16
2023-04-06T11:26:50.103Z,98837.97
2023-04-06T11:29:17.752Z,98898.41
2023-04-06T11:31:47.195Z,98879.16
2023-04-06T11:34:17.010Z,98890.63
2023-04-06T11:36:44.370Z,98883.84
2023-04-06T11:39:11.612Z,98825.63
2023-04-06T11:41:38.297Z,98841.47
2023-04-06T11:44:06.585Z,98705.00
2023-04-06T11:46:33.466Z,98812.00
2023-04-06T11:49:01.659Z,98770.81
2023-04-06T11:51:28.668Z,98745.50
2023-04-06T11:53:56.060Z,98796.06
2023-04-06T11:56:26.630Z,98547.19
2023-04-06T11:58:54.033Z,98730.28
2023-04-06T12:01:20.659Z,98717.91
2023-04-06T12:03:47.776Z,98714.41
2023-04-06T12:06:14.841Z,98712.19
2023-04-06T12:08:42.039Z,98685.53
2023-04-06T12:11:08.634Z,98688.06
2023-04-06T12:13:35.400Z,98701.22
2023-04-06T12:16:02.011Z,98723.09
2023-04-06T12:18:28.869Z,98660.25
2023-04-06T12:20:55.502Z,98707.22
2023-04-06T12:23:22.161Z,98678.63
2023-04-06T12:25:48.831Z,98675.22
2023-04-06T12:28:15.468Z,98583.13
2023-04-06T12:30:42.239Z,98707.41
2023-04-06T12:33:08.898Z,98692.81
2023-04-06T12:35:36.178Z,98666.47
2023-04-06T12:38:03.362Z,98664.25
2023-04-06T12:40:30.318Z,98665.09
2023-04-06T12:42:57.019Z,98650.06
2023-04-06T12:45:23.660Z,98647.41
2023-04-06T12:47:50.319Z,98655.25
2023-04-06T12:50:16.995Z,98628.28
2023-04-06T12:52:43.552Z,98603.88
2023-04-06T12:55:10.611Z,98597.13
2023-04-06T12:57:38.163Z,98578.81
2023-04-06T13:00:07.786Z,98537.94
2023-04-06T13:02:35.993Z,98553.94
2023-04-06T13:05:02.727Z,98596.41
2023-04-06T13:07:29.873Z,98578.44
2023-04-06T13:09:56.428Z,98607.88
2023-04-06T13:12:23.360Z,98606.19
2023-04-06T13:14:53.412Z,98594.00
2023-04-06T13:17:20.145Z,98573.94
2023-04-06T13:19:46.739Z,98570.84
2023-04-06T13:22:13.280Z,98571.94
2023-04-06T13:24:39.833Z,98550.16
2023-04-06T13:27:06.895Z,98538.00
2023-04-06T13:29:35.220Z,98545.47
2023-04-06T13:32:01.864Z,98547.34
2023-04-06T13:34:28.655Z,98537.25
2023-04-06T13:36:55.514Z,98538.09
2023-04-06T13:39:22.143Z,98538.28
2023-04-06T13:41:48.758Z,98572.31
2023-04-06T13:44:15.321Z,98580.97
2023-04-06T13:46:41.960Z,98552.38
2023-04-06T13:49:08.550Z,98565.06
2023-04-06T13:51:35.141Z,98499.19
2023-04-06T13:54:01.742Z,98605.03
2023-04-06T13:56:28.440Z,98575.09
2023-04-06T13:58:56.828Z,98598.88
2023-04-06T14:01:23.576Z,98596.91
2023-04-06T14:03:50.830Z,98601.53
2023-04-06T14:08:47.817Z,98617.47
2023-04-06T14:11:15.002Z,98559.06
2023-04-06T14:13:42.945Z,98638.41
2023-04-06T14:16:09.817Z,98625.13
2023-04-06T14:18:37.786Z,98575.38
2023-04-06T14:21:04.399Z,98644.06
2023-04-06T14:23:31.223Z,98657.41
2023-04-06T14:26:05.162Z,98667.94
2023-04-06T14:28:32.290Z,98678.50
2023-04-06T14:30:59.918Z,98681.94
2023-04-06T14:33:27.112Z,98697.38
2023-04-06T14:35:54.037Z,98695.00
2023-04-06T14:38:20.621Z,98705.34
2023-04-06T14:40:47.269Z,98724.28
2023-04-06T14:43:13.826Z,98753.91
2023-04-06T14:45:40.512Z,98776.75
2023-04-06T14:48:07.829Z,98797.44
2023-04-06T14:50:35.385Z,98801.59
2023-04-06T14:53:02.121Z,98832.16
2023-04-06T14:55:28.757Z,98853.78
2023-04-06T14:57:55.369Z,98871.38
2023-04-06T15:00:21.952Z,98876.19
2023-04-06T15:02:48.947Z,98888.03
2023-04-06T15:05:15.899Z,98910.41
2023-04-06T15:07:42.428Z,98935.66
2023-04-06T15:10:10.826Z,98950.91
2023-04-06T15:12:39.208Z,98971.38
2023-04-06T15:15:06.281Z,98984.69
2023-04-06T15:17:32.904Z,99003.50
2023-04-06T15:19:59.496Z,99014.16
2023-04-06T15:22:26.202Z,99017.03
2023-04-06T15:24:52.783Z,99033.75
2023-04-06T15:27:19.387Z,99045.94
2023-04-06T15:29:46.242Z,99062.81
2023-04-06T15:32:13.439Z,99076.03
2023-04-06T15:34:40.446Z,99087.22
2023-04-06T15:37:07.300Z,99095.50
2023-04-06T15:39:34.029Z,99101.88
2023-04-06T15:42:01.173Z,99110.97
2023-04-06T15:44:27.752Z,99125.19
2023-04-06T15:46:54.377Z,99130.78
2023-04-06T15:49:20.974Z,99139.88
2023-04-06T15:51:48.630Z,99151.50
2023-04-06T15:54:16.008Z,99162.28
2023-04-06T15:56:43.065Z,99173.13
2023-04-06T15:59:09.670Z,99189.75
2023-04-06T16:01:36.369Z,99198.72
2023-04-06T16:04:03.529Z,99206.03
2023-04-06T16:06:32.289Z,99217.69
2023-04-06T16:08:58.826Z,99228.28
2023-04-06T16:11:26.222Z,99232.16
2023-04-06T16:13:54.973Z,99251.94
2023-04-06T16:16:22.264Z,99274.56
2023-04-06T16:18:48.870Z,99289.94
2023-04-06T16:21:18.807Z,99288.78
2023-04-06T16:23:46.644Z,99304.78
2023-04-06T16:26:18.176Z,99315.59
2023-04-06T16:28:45.065Z,99320.28
2023-04-06T16:31:21.278Z,99332.66
2023-04-06T16:33:48.938Z,99347.66
2023-04-06T16:36:21.496Z,99353.00
2023-04-06T16:38:48.088Z,99370.50
2023-04-06T16:41:16.127Z,99370.59
2023-04-06T16:43:42.708Z,99376.81
2023-04-06T16:46:09.474Z,99394.28
2023-04-06T16:48:38.845Z,99393.50
2023-04-06T16:51:11.400Z,99399.66
2023-04-06T16:53:38.379Z,99411.84
2023-04-06T16:56:05.623Z,99416.19
2023-04-06T16:58:33.060Z,99441.38
2023-04-06T17:01:02.666Z,99438.84
2023-04-06T17:03:30.811Z,99442.47
2023-04-06T17:05:57.626Z,99446.03
2023-04-06T17:08:24.206Z,99455.63
2023-04-06T17:10:59.274Z,99463.53
2023-04-06T17:13:30.366Z,99471.38
2023-04-06T17:16:00.152Z,99484.47
2023-04-06T17:18:26.864Z,99498.38
2023-04-06T17:20:53.596Z,99493.22
2023-04-06T17:23:21.160Z,99500.22
2023-04-06T17:25:47.767Z,99510.63
2023-04-06T17:28:14.317Z,99517.59
2023-04-06T17:30:42.683Z,99528.06
2023-04-06T17:33:10.034Z,99535.03
2023-04-06T17:35:36.762Z,99535.06
2023-04-06T17:38:03.342Z,99542.03
2023-04-06T17:40:30.406Z,99544.66
2023-04-06T17:42:56.970Z,99553.31
2023-04-06T17:45:23.516Z,99555.91
2023-04-06T17:47:50.383Z,99561.16
2023-04-06T17:50:17.025Z,99561.16
2023-04-06T17:55:15.587Z,99572.44
2023-04-06T17:57:46.593Z,99572.47
2023-04-06T18:00:15.290Z,99574.25
2023-04-06T18:02:42.020Z,99582.88
2023-04-06T18:05:08.946Z,99591.56
2023-04-06T18:07:36.857Z,99586.44
2023-04-06T18:10:03.522Z,99584.75
2023-04-06T18:12:30.138Z,99590.81
2023-04-06T18:14:56.692Z,99597.75
2023-04-06T18:17:23.358Z,99600.34
2023-04-06T18:19:50.025Z,99603.81
2023-04-06T18:22:16.675Z,99606.41
2023-04-06T18:24:43.517Z,99605.56
2023-04-06T18:27:11.369Z,99612.50
2023-04-06T18:29:37.998Z,99611.66
2023-04-06T18:32:05.723Z,99623.72
2023-04-06T18:34:32.637Z,99626.34
2023-04-06T18:37:01.534Z,99624.59
2023-04-06T18:39:28.702Z,99634.13
2023-04-06T18:41:55.968Z,99635.84
2023-04-06T18:44:22.917Z,99648.81
2023-04-06T18:46:51.046Z,99639.28
2023-04-06T18:49:20.239Z,99651.41
2023-04-06T18:51:46.965Z,99651.41
2023-04-06T18:54:14.138Z,99653.13
2023-04-06T18:56:42.139Z,99661.75
2023-04-06T18:59:12.657Z,99665.22
2023-04-06T19:01:46.257Z,99665.19
2023-04-06T19:04:13.260Z,99662.63
2023-04-06T19:06:40.397Z,99670.38
2023-04-06T19:09:07.928Z,99670.38
2023-04-06T19:11:36.631Z,99670.38
2023-04-06T19:14:03.915Z,99676.41
2023-04-06T19:16:31.107Z,99672.09
2023-04-06T19:19:00.078Z,99679.81
2023-04-06T19:21:27.682Z,99691.88
2023-04-06T19:23:55.892Z,99685.78
2023-04-06T19:26:23.831Z,99689.25
2023-04-06T19:28:50.601Z,99690.94
2023-04-06T19:31:18.238Z,99696.13
2023-04-06T19:33:45.577Z,99700.41
2023-04-06T19:36:12.539Z,99708.16
2023-04-06T19:38:39.286Z,99709.88
2023-04-06T19:41:06.106Z,99701.22
2023-04-06T19:43:32.768Z,99709.81
2023-04-06T19:45:59.615Z,99712.38
2023-04-06T19:48:26.348Z,99713.22
2023-04-06T19:50:53.537Z,99721.81
2023-04-06T19:53:21.023Z,99725.25
2023-04-06T19:55:47.756Z,99719.19
2023-04-06T19:58:14.482Z,99727.78
2023-04-06T20:00:41.203Z,99733.81
2023-04-06T20:03:08.089Z,99738.97
2023-04-06T20:05:34.960Z,99741.50
2023-04-06T20:08:01.486Z,99744.06
2023-04-06T20:10:28.080Z,99746.63
2023-04-06T20:12:54.826Z,99754.34
2023-04-06T20:15:23.111Z,99759.50
2023-04-06T20:17:49.910Z,99758.63
2023-04-06T20:20:16.570Z,99756.00
2023-04-06T20:22:43.177Z,99765.44
2023-04-06T20:25:11.396Z,99775.72
2023-04-06T20:27:38.755Z,99757.66
2023-04-06T20:30:05.673Z,99770.53
2023-04-06T20:32:33.379Z,99767.06
2023-04-06T20:35:00.024Z,99779.06
2023-04-06T20:37:26.686Z,99781.59
2023-04-06T20:39:53.279Z,99783.31
2023-04-06T20:42:21.621Z,99786.72
2023-04-06T20:44:48.243Z,99790.16
2023-04-06T20:47:14.871Z,99792.69
2023-04-06T20:49:41.458Z,99796.97
2023-04-06T20:52:08.072Z,99805.50
2023-04-06T20:54:34.648Z,99802.06
2023-04-06T20:57:01.697Z,99814.13
2023-04-06T20:59:28.299Z,99815.03
2023-04-06T21:01:55.262Z,99833.19
2023-04-06T21:04:22.848Z,99829.78
2023-04-06T21:06:50.123Z,99826.28
2023-04-06T21:09:16.864Z,99825.31
2023-04-06T21:11:43.490Z,99843.31
2023-04-06T21:14:10.343Z,99843.22
2023-04-06T21:16:37.699Z,99853.53
2023-04-06T21:19:04.327Z,99854.34
2023-04-06T21:21:30.874Z,99865.47
2023-04-06T21:23:58.518Z,99862.81
2023-04-06T21:26:25.143Z,99875.59
2023-04-06T21:28:51.769Z,99868.69
2023-04-06T21:31:20.028Z,99888.38
2023-04-06T21:33:47.069Z,99896.13
2023-04-06T21:36:13.751Z,99899.50
2023-04-06T21:38:40.345Z,99892.53
2023-04-06T21:41:07.351Z,99891.59
2023-04-06T21:43:34.059Z,99904.44
2023-04-06T21:46:00.740Z,99907.84
2023-04-06T21:48:27.398Z,99919.94
2023-04-06T21:50:54.034Z,99915.69
2023-04-06T21:53:20.643Z,99914.03
2023-04-06T21:55:47.516Z,99930.28
2023-04-06T21:58:14.738Z,99925.94
2023-04-06T22:00:41.661Z,99923.38
2023-04-06T22:03:08.436Z,99927.78
2023-04-06T22:05:37.319Z,99923.50
2023-04-06T22:08:04.070Z,99922.50
2023-04-06T22:10:30.872Z,99924.06
2023-04-06T22:12:57.500Z,99929.88
2023-04-06T22:15:24.074Z,99932.44
2023-04-06T22:17:50.879Z,99956.34
2023-04-06T22:20:17.538Z,99948.47
2023-04-06T22:22:44.409Z,99943.13
2023-04-06T22:25:10.952Z,99948.16
2023-04-06T22:27:37.484Z,99957.63
2023-04-06T22:30:04.582Z,99956.91
2023-04-06T22:32:31.226Z,99960.31
2023-04-06T22:34:57.797Z,99961.25
2023-04-06T22:37:24.551Z,99965.59
2023-04-06T22:39:51.137Z,99965.50
2023-04-06T22:42:17.680Z,99973.84
2023-04-06T22:44:44.356Z,99983.28
2023-04-06T22:47:11.019Z,99974.63
2023-04-06T22:49:37.593Z,99985.72
2023-04-06T22:52:04.166Z,99990.00
2023-04-06T22:54:30.850Z,99983.09
2023-04-06T22:56:57.521Z,99987.25
2023-04-06T22:59:24.159Z,99994.81
2023-04-06T23:01:50.867Z,100000.84
2023-04-06T23:04:17.790Z,100006.91
2023-04-06T23:06:44.732Z,100002.50
2023-04-06T23:09:11.657Z,100010.16
2023-04-06T23:11:38.277Z,100009.31
2023-04-06T23:14:04.815Z,100006.75
2023-04-06T23:16:31.443Z,100012.78
2023-04-06T23:18:58.034Z,100011.13
2023-04-06T23:21:24.668Z,100012.78
2023-04-06T23:23:51.565Z,100017.81
2023-04-06T23:26:18.149Z,100022.16
2023-04-06T23:28:44.793Z,100028.94
2023-04-06T23:31:13.636Z,100031.41
2023-04-06T23:33:40.438Z,100032.94
2023-04-06T23:36:07.190Z,100026.78
2023-04-06T23:38:33.748Z,100021.47
2023-04-06T23:41:00.557Z,100048.66
2023-04-06T23:43:27.230Z,100046.16
2023-04-06T23:45:53.964Z,100037.78
2023-04-06T23:48:20.601Z,100036.91
2023-04-06T23:50:48.521Z,100036.88
2023-04-06T23:53:15.122Z,100038.69
2023-04-06T23:55:41.751Z,100034.31
2023-04-06T23:58:08.470Z,100038.41
